createdAt,value
2017-08-20T00:00:50.870Z,98487.09
2017-08-20T00:03:19.237Z,98490.83
2017-08-20T00:05:47.618Z,98486.94
2017-08-20T00:08:16.025Z,98487.79
2017-08-20T00:10:45.174Z,98488.27
2017-08-20T00:13:13.565Z,98492.66
2017-08-20T00:15:41.981Z,98492.16
2017-08-20T00:18:10.361Z,98495.53
2017-08-20T00:20:38.764Z,98487.42
2017-08-20T00:23:07.896Z,98492.05
2017-08-20T00:25:36.294Z,98490.67
2017-08-20T00:28:04.689Z,98493.14
2017-08-20T00:30:33.073Z,98496.06
2017-08-20T00:33:01.473Z,98498.21
2017-08-20T00:35:30.603Z,98504.52
2017-08-20T00:37:58.988Z,98502.03
2017-08-20T00:40:27.388Z,98504.01
2017-08-20T00:42:55.783Z,98497.56
2017-08-20T00:45:24.145Z,98504.43
2017-08-20T00:47:52.535Z,98501.30
2017-08-20T00:50:20.907Z,98502.95
2017-08-20T00:52:49.347Z,98499.91
2017-08-20T00:55:18.496Z,98490.02
2017-08-20T00:57:46.873Z,98491.69
2017-08-20T01:00:15.315Z,98489.42
2017-08-20T01:02:44.493Z,98487.71
2017-08-20T01:05:12.865Z,98485.91
2017-08-20T01:07:41.232Z,98485.06
2017-08-20T01:10:09.631Z,98492.34
2017-08-20T01:12:37.998Z,98496.52
2017-08-20T01:15:06.376Z,98489.20
2017-08-20T01:17:34.851Z,98488.89
2017-08-20T01:20:03.238Z,98496.58
2017-08-20T01:22:31.632Z,98495.34
2017-08-20T01:24:59.994Z,98496.58
2017-08-20T01:27:28.416Z,98491.37
2017-08-20T01:29:57.549Z,98500.04
2017-08-20T01:32:25.946Z,98495.39
2017-08-20T01:34:54.348Z,98494.66
2017-08-20T01:37:22.723Z,98493.11
2017-08-20T01:39:51.132Z,98498.92
2017-08-20T01:42:20.260Z,98504.85
2017-08-20T01:44:48.634Z,98506.23
2017-08-20T01:47:17.048Z,98505.86
2017-08-20T01:49:45.433Z,98511.79
2017-08-20T01:52:13.873Z,98513.09
2017-08-20T01:54:43.029Z,98513.16
2017-08-20T01:57:11.390Z,98513.20
2017-08-20T01:59:39.754Z,98508.88
2017-08-20T02:02:08.178Z,98507.17
2017-08-20T02:04:36.545Z,98512.69
2017-08-20T02:07:04.937Z,98509.88
2017-08-20T02:09:33.315Z,98510.41
2017-08-20T02:12:01.695Z,98513.01
2017-08-20T02:14:30.094Z,98511.25
2017-08-20T02:16:58.462Z,98514.40
2017-08-20T02:19:26.856Z,98514.95
2017-08-20T02:21:55.472Z,98514.59
2017-08-20T02:24:23.841Z,98516.66
2017-08-20T02:26:53.007Z,98522.11
2017-08-20T02:29:21.394Z,98522.53
2017-08-20T02:31:49.800Z,98520.89
2017-08-20T02:34:18.934Z,98525.65
2017-08-20T02:36:47.321Z,98535.81
2017-08-20T02:39:15.711Z,98531.97
2017-08-20T02:41:44.084Z,98532.48
2017-08-20T02:44:12.476Z,98534.64
2017-08-20T02:46:40.846Z,98531.64
2017-08-20T02:49:09.228Z,98528.22
2017-08-20T02:51:37.635Z,98537.66
2017-08-20T02:54:06.001Z,98531.22
2017-08-20T02:56:34.397Z,98533.77
2017-08-20T02:59:02.765Z,98530.35
2017-08-20T03:01:31.165Z,98529.95
2017-08-20T03:03:59.538Z,98534.27
2017-08-20T03:06:27.906Z,98539.09
2017-08-20T03:08:56.317Z,98533.96
2017-08-20T03:11:24.703Z,98529.64
2017-08-20T03:13:53.402Z,98536.94
2017-08-20T03:16:22.548Z,98545.98
2017-08-20T03:18:50.930Z,98539.11
2017-08-20T03:21:19.330Z,98544.75
2017-08-20T03:23:47.712Z,98549.12
2017-08-20T03:26:16.105Z,98548.66
2017-08-20T03:28:44.474Z,98550.01
2017-08-20T03:31:12.855Z,98546.08
2017-08-20T03:33:41.262Z,98547.30
2017-08-20T03:36:09.635Z,98547.71
2017-08-20T03:38:38.070Z,98543.39
2017-08-20T03:41:06.452Z,98539.38
2017-08-20T03:43:34.863Z,98545.36
2017-08-20T03:46:03.242Z,98552.99
2017-08-20T03:48:31.642Z,98551.71
2017-08-20T03:51:00.023Z,98550.00
2017-08-20T03:53:28.436Z,98551.71
2017-08-20T03:55:56.809Z,98544.41
2017-08-20T03:58:25.946Z,98542.70
2017-08-20T04:00:54.352Z,98538.40
2017-08-20T04:03:22.751Z,98541.00
2017-08-20T04:05:51.141Z,98535.84
2017-08-20T04:08:20.313Z,98534.12
2017-08-20T04:10:48.702Z,98523.94
2017-08-20T04:13:17.073Z,98530.36
2017-08-20T04:15:45.478Z,98539.40
2017-08-20T04:18:13.853Z,98545.45
2017-08-20T04:20:42.248Z,98539.98
2017-08-20T04:23:11.397Z,98537.86
2017-08-20T04:25:39.761Z,98545.96
2017-08-20T04:28:08.238Z,98548.52
2017-08-20T04:30:36.619Z,98552.92
2017-08-20T04:33:05.040Z,98555.86
2017-08-20T04:35:33.427Z,98561.21
2017-08-20T04:38:01.842Z,98569.74
2017-08-20T04:40:30.987Z,98568.55
2017-08-20T04:42:59.369Z,98574.02
2017-08-20T04:45:27.769Z,98574.30
2017-08-20T04:47:56.152Z,98572.96
2017-08-20T04:50:24.563Z,98571.15
2017-08-20T04:52:53.709Z,98573.20
2017-08-20T04:55:22.109Z,98571.10
2017-08-20T04:57:50.501Z,98570.60
2017-08-20T05:00:18.892Z,98578.75
2017-08-20T05:02:47.278Z,98579.88
2017-08-20T05:05:16.405Z,98582.83
2017-08-20T05:07:44.805Z,98578.02
2017-08-20T05:10:13.184Z,98577.52
2017-08-20T05:12:41.577Z,98581.85
2017-08-20T05:15:09.945Z,98574.02
2017-08-20T05:17:38.330Z,98575.32
2017-08-20T05:20:06.726Z,98576.15
2017-08-20T05:22:35.108Z,98575.28
2017-08-20T05:25:03.509Z,98571.43
2017-08-20T05:27:31.882Z,98576.53
2017-08-20T05:30:00.291Z,98582.08
2017-08-20T05:32:29.421Z,98575.07
2017-08-20T05:34:57.803Z,98583.20
2017-08-20T05:37:26.267Z,98568.57
2017-08-20T05:39:54.664Z,98570.23
2017-08-20T05:42:23.085Z,98573.55
2017-08-20T05:44:51.459Z,98573.00
2017-08-20T05:47:19.833Z,98574.63
2017-08-20T05:49:48.231Z,98580.14
2017-08-20T05:52:16.617Z,98585.66
2017-08-20T05:54:45.028Z,98591.56
2017-08-20T05:57:14.163Z,98596.66
2017-08-20T05:59:42.543Z,98596.23
2017-08-20T06:02:10.930Z,98601.73
2017-08-20T06:04:40.383Z,98596.99
2017-08-20T06:07:09.513Z,98592.13
2017-08-20T06:09:37.878Z,98598.84
2017-08-20T06:12:06.277Z,98602.59
2017-08-20T06:14:34.650Z,98604.11
2017-08-20T06:17:03.049Z,98600.06
2017-08-20T06:19:31.416Z,98606.33
2017-08-20T06:21:59.809Z,98608.50
2017-08-20T06:24:28.169Z,98606.66
2017-08-20T06:26:56.546Z,98608.55
2017-08-20T06:29:24.955Z,98612.63
2017-08-20T06:31:53.332Z,98614.55
2017-08-20T06:34:21.734Z,98615.94
2017-08-20T06:36:50.112Z,98616.17
2017-08-20T06:39:18.513Z,98610.05
2017-08-20T06:41:46.891Z,98611.81
2017-08-20T06:44:15.307Z,98612.99
2017-08-20T06:46:44.437Z,98615.17
2017-08-20T06:49:12.805Z,98630.84
2017-08-20T06:51:41.210Z,98630.15
2017-08-20T06:54:09.603Z,98633.15
2017-08-20T06:56:37.996Z,98632.66
2017-08-20T06:59:06.360Z,98640.66
2017-08-20T07:01:34.764Z,98637.28
2017-08-20T07:04:03.204Z,98641.95
2017-08-20T07:06:31.701Z,98643.05
2017-08-20T07:09:00.065Z,98647.56
2017-08-20T07:11:28.448Z,98639.77
2017-08-20T07:13:56.893Z,98648.07
2017-08-20T07:16:25.306Z,98651.57
2017-08-20T07:18:53.713Z,98650.39
2017-08-20T07:21:22.096Z,98650.95
2017-08-20T07:23:50.520Z,98659.45
2017-08-20T07:26:19.714Z,98654.38
2017-08-20T07:28:48.082Z,98656.22
2017-08-20T07:31:16.495Z,98658.70
2017-08-20T07:33:44.903Z,98663.85
2017-08-20T07:36:13.540Z,98657.78
2017-08-20T07:38:41.920Z,98656.72
2017-08-20T07:41:10.309Z,98657.20
2017-08-20T07:43:38.680Z,98654.30
2017-08-20T07:46:07.075Z,98656.60
2017-08-20T07:48:35.451Z,98653.94
2017-08-20T07:51:03.864Z,98652.08
2017-08-20T07:53:32.251Z,98652.02
2017-08-20T07:56:00.656Z,98653.25
2017-08-20T07:58:29.030Z,98647.73
2017-08-20T08:00:57.435Z,98657.77
2017-08-20T08:03:25.815Z,98651.11
2017-08-20T08:05:54.196Z,98649.38
2017-08-20T08:08:22.607Z,98651.37
2017-08-20T08:10:51.737Z,98656.78
2017-08-20T08:13:20.149Z,98657.57
2017-08-20T08:15:48.518Z,98656.47
2017-08-20T08:18:16.923Z,98656.52
2017-08-20T08:20:45.311Z,98650.28
2017-08-20T08:23:13.697Z,98652.46
2017-08-20T08:25:42.115Z,98662.98
2017-08-20T08:28:10.499Z,98661.45
2017-08-20T08:30:38.904Z,98654.73
2017-08-20T08:33:07.280Z,98655.48
2017-08-20T08:35:35.668Z,98658.66
2017-08-20T08:38:04.087Z,98661.33
2017-08-20T08:40:32.460Z,98656.70
2017-08-20T08:43:00.846Z,98661.25
2017-08-20T08:45:29.226Z,98652.92
2017-08-20T08:47:57.635Z,98671.59
2017-08-20T08:50:26.005Z,98658.30
2017-08-20T08:52:55.148Z,98661.10
2017-08-20T08:55:23.541Z,98664.11
2017-08-20T08:57:51.910Z,98666.69
2017-08-20T09:00:20.311Z,98662.79
2017-08-20T09:02:48.682Z,98659.16
2017-08-20T09:05:17.064Z,98654.75
2017-08-20T09:07:45.467Z,98655.62
2017-08-20T09:10:13.832Z,98658.81
2017-08-20T09:12:42.229Z,98666.29
2017-08-20T09:15:10.607Z,98660.00
2017-08-20T09:17:39.019Z,98663.70
2017-08-20T09:20:08.154Z,98663.02
2017-08-20T09:22:36.513Z,98661.22
2017-08-20T09:25:04.910Z,98668.14
2017-08-20T09:27:34.296Z,98678.56
2017-08-20T09:30:02.715Z,98674.51
2017-08-20T09:32:31.090Z,98673.69
2017-08-20T09:34:59.475Z,98693.03
2017-08-20T09:37:27.879Z,98683.67
2017-08-20T09:39:56.246Z,98702.61
2017-08-20T09:42:24.620Z,98707.38
2017-08-20T09:44:53.027Z,98705.03
2017-08-20T09:47:21.403Z,98715.48
2017-08-20T09:49:49.817Z,98702.11
2017-08-20T09:52:18.958Z,98694.31
2017-08-20T09:54:47.783Z,98691.89
2017-08-20T09:57:16.183Z,98703.86
2017-08-20T09:59:44.578Z,98705.22
2017-08-20T10:02:12.996Z,98699.22
2017-08-20T10:04:41.362Z,98701.39
2017-08-20T10:07:09.772Z,98705.13
2017-08-20T10:09:38.140Z,98703.67
2017-08-20T10:12:07.600Z,98697.97
2017-08-20T10:14:36.752Z,98698.88
2017-08-20T10:17:05.116Z,98699.75
2017-08-20T10:19:33.501Z,98697.30
2017-08-20T10:22:01.883Z,98695.22
2017-08-20T10:24:30.292Z,98687.88
2017-08-20T10:26:58.667Z,98697.87
2017-08-20T10:29:27.033Z,98708.59
2017-08-20T10:31:55.455Z,98715.17
2017-08-20T10:34:23.819Z,98717.13
2017-08-20T10:36:52.207Z,98699.98
2017-08-20T10:39:20.588Z,98696.03
2017-08-20T10:41:48.987Z,98705.80
2017-08-20T10:44:18.156Z,98698.81
2017-08-20T10:46:46.559Z,98703.27
2017-08-20T10:49:15.712Z,98702.81
2017-08-20T10:51:44.074Z,98700.22
2017-08-20T10:54:12.479Z,98696.16
2017-08-20T10:56:40.841Z,98695.16
2017-08-20T10:59:09.227Z,98694.11
2017-08-20T11:01:37.592Z,98690.91
2017-08-20T11:04:05.981Z,98695.53
2017-08-20T11:06:34.351Z,98698.26
2017-08-20T11:09:02.749Z,98704.42
2017-08-20T11:11:31.123Z,98702.88
2017-08-20T11:13:59.484Z,98697.90
2017-08-20T11:16:28.651Z,98687.50
2017-08-20T11:18:57.021Z,98689.17
2017-08-20T11:21:25.427Z,98701.91
2017-08-20T11:23:53.803Z,98694.22
2017-08-20T11:26:22.180Z,98687.90
2017-08-20T11:28:50.568Z,98688.67
2017-08-20T11:31:18.939Z,98685.84
2017-08-20T11:33:47.338Z,98686.94
2017-08-20T11:36:15.705Z,98692.50
2017-08-20T11:38:44.096Z,98679.63
2017-08-20T11:41:12.493Z,98681.59
2017-08-20T11:43:41.649Z,98681.38
2017-08-20T11:46:10.031Z,98684.78
2017-08-20T11:48:38.466Z,98685.08
2017-08-20T11:51:06.859Z,98681.70
2017-08-20T11:53:35.247Z,98691.91
2017-08-20T11:56:03.672Z,98686.82
2017-08-20T11:58:32.047Z,98692.17
2017-08-20T12:01:00.434Z,98683.95
2017-08-20T12:03:28.815Z,98681.30
2017-08-20T12:05:57.201Z,98677.29
2017-08-20T12:08:25.589Z,98667.30
2017-08-20T12:10:53.982Z,98676.70
2017-08-20T12:13:23.113Z,98670.94
2017-08-20T12:15:51.513Z,98670.41
2017-08-20T12:18:19.884Z,98677.20
2017-08-20T12:20:48.244Z,98676.30
2017-08-20T12:23:16.645Z,98673.80
2017-08-20T12:25:45.024Z,98672.03
2017-08-20T12:28:13.440Z,98680.53
2017-08-20T12:30:41.808Z,98684.73
2017-08-20T12:33:10.192Z,98675.44
2017-08-20T12:35:38.574Z,98671.63
2017-08-20T12:38:06.969Z,98661.57
2017-08-20T12:40:35.350Z,98666.13
2017-08-20T12:43:03.767Z,98673.55
2017-08-20T12:45:32.141Z,98671.56
2017-08-20T12:48:00.542Z,98673.77
2017-08-20T12:50:28.919Z,98670.13
2017-08-20T12:52:57.299Z,98669.89
2017-08-20T12:55:25.711Z,98684.40
2017-08-20T12:57:54.092Z,98673.91
2017-08-20T13:00:22.489Z,98676.05
2017-08-20T13:02:50.854Z,98678.69
2017-08-20T13:05:19.226Z,98683.23
2017-08-20T13:07:47.613Z,98688.93
2017-08-20T13:10:15.977Z,98684.86
2017-08-20T13:12:44.367Z,98683.02
2017-08-20T13:15:12.726Z,98688.95
2017-08-20T13:17:41.172Z,98692.11
2017-08-20T13:20:09.564Z,98697.52
2017-08-20T13:22:37.959Z,98690.58
2017-08-20T13:25:06.330Z,98697.58
2017-08-20T13:27:34.707Z,98704.77
2017-08-20T13:30:03.136Z,98697.58
2017-08-20T13:32:31.527Z,98705.81
2017-08-20T13:34:59.985Z,98709.55
2017-08-20T13:37:28.359Z,98710.83
2017-08-20T13:39:56.778Z,98708.14
2017-08-20T13:42:25.155Z,98711.83
2017-08-20T13:44:53.563Z,98721.99
2017-08-20T13:47:21.939Z,98755.42
2017-08-20T13:49:50.337Z,98754.21
2017-08-20T13:52:19.489Z,98738.90
2017-08-20T13:54:47.895Z,98737.02
2017-08-20T13:57:16.273Z,98736.55
2017-08-20T13:59:44.635Z,98733.98
2017-08-20T14:02:13.031Z,98727.87
2017-08-20T14:04:41.424Z,98726.00
2017-08-20T14:07:09.824Z,98725.23
2017-08-20T14:09:38.961Z,98720.13
2017-08-20T14:12:07.367Z,98712.47
2017-08-20T14:14:35.765Z,98713.55
2017-08-20T14:17:04.175Z,98709.19
2017-08-20T14:19:33.322Z,98704.34
2017-08-20T14:22:01.688Z,98698.01
2017-08-20T14:24:30.095Z,98697.22
2017-08-20T14:26:58.465Z,98692.63
2017-08-20T14:29:26.868Z,98692.61
2017-08-20T14:31:55.249Z,98706.66
2017-08-20T14:34:23.639Z,98700.99
2017-08-20T14:36:52.025Z,98699.58
2017-08-20T14:39:20.390Z,98689.20
2017-08-20T14:41:48.799Z,98687.68
2017-08-20T14:44:17.933Z,98698.09
2017-08-20T14:46:46.338Z,98691.61
2017-08-20T14:49:14.710Z,98703.55
2017-08-20T14:51:43.112Z,98695.32
2017-08-20T14:54:11.499Z,98698.64
2017-08-20T14:56:39.894Z,98700.86
2017-08-20T14:59:08.318Z,98699.42
2017-08-20T15:01:36.700Z,98700.28
2017-08-20T15:04:05.103Z,98698.44
2017-08-20T15:06:33.496Z,98697.59
2017-08-20T15:09:01.895Z,98694.77
2017-08-20T15:11:30.285Z,98691.60
2017-08-20T15:13:59.440Z,98693.41
2017-08-20T15:16:27.815Z,98699.17
2017-08-20T15:18:56.193Z,98686.19
2017-08-20T15:21:24.605Z,98694.05
2017-08-20T15:23:52.991Z,98681.48
2017-08-20T15:26:21.377Z,98684.44
2017-08-20T15:28:49.768Z,98684.95
2017-08-20T15:31:18.908Z,98682.63
2017-08-20T15:33:47.299Z,98684.74
2017-08-20T15:36:15.663Z,98692.77
2017-08-20T15:38:44.067Z,98687.91
2017-08-20T15:41:12.429Z,98694.83
2017-08-20T15:43:40.801Z,98688.97
2017-08-20T15:46:09.206Z,98694.58
2017-08-20T15:48:37.599Z,98698.29
2017-08-20T15:51:05.979Z,98706.42
2017-08-20T15:53:34.381Z,98717.41
2017-08-20T15:56:02.755Z,98705.80
2017-08-20T15:58:31.132Z,98706.95
2017-08-20T16:00:59.527Z,98696.39
2017-08-20T16:03:27.914Z,98715.36
2017-08-20T16:05:56.344Z,98700.29
2017-08-20T16:08:24.710Z,98709.22
2017-08-20T16:10:53.112Z,98707.84
2017-08-20T16:13:21.472Z,98701.78
2017-08-20T16:15:49.846Z,98718.98
2017-08-20T16:18:18.258Z,98723.95
2017-08-20T16:20:46.641Z,98723.89
2017-08-20T16:23:15.052Z,98722.28
2017-08-20T16:25:43.437Z,98727.97
2017-08-20T16:28:11.801Z,98731.78
2017-08-20T16:30:40.203Z,98732.13
2017-08-20T16:33:08.583Z,98736.14
2017-08-20T16:35:36.981Z,98733.69
2017-08-20T16:38:05.391Z,98729.16
2017-08-20T16:40:33.763Z,98733.98
2017-08-20T16:43:02.147Z,98730.20
2017-08-20T16:45:30.557Z,98724.95
2017-08-20T16:47:58.949Z,98729.98
2017-08-20T16:50:27.341Z,98730.51
2017-08-20T16:52:55.725Z,98728.34
2017-08-20T16:55:24.110Z,98732.78
2017-08-20T16:57:52.505Z,98735.41
2017-08-20T17:00:20.874Z,98737.53
2017-08-20T17:02:49.265Z,98730.97
2017-08-20T17:05:17.635Z,98732.27
2017-08-20T17:07:46.060Z,98738.75
2017-08-20T17:10:14.441Z,98729.29
2017-08-20T17:12:42.819Z,98735.47
2017-08-20T17:15:11.219Z,98728.64
2017-08-20T17:17:39.612Z,98725.66
2017-08-20T17:20:08.019Z,98724.77
2017-08-20T17:22:36.416Z,98717.23
2017-08-20T17:25:04.810Z,98723.58
2017-08-20T17:27:33.209Z,98722.82
2017-08-20T17:30:01.619Z,98721.33
2017-08-20T17:32:30.003Z,98727.75
2017-08-20T17:34:58.377Z,98730.52
2017-08-20T17:37:26.785Z,98714.70
2017-08-20T17:39:55.177Z,98718.83
2017-08-20T17:42:23.551Z,98719.47
2017-08-20T17:44:51.967Z,98714.61
2017-08-20T17:47:21.103Z,98712.30
2017-08-20T17:49:49.491Z,98717.78
2017-08-20T17:52:17.892Z,98720.30
2017-08-20T17:54:46.290Z,98722.64
2017-08-20T17:57:14.661Z,98721.03
2017-08-20T17:59:43.039Z,98714.21
2017-08-20T18:02:11.449Z,98712.33
2017-08-20T18:04:40.595Z,98714.39
2017-08-20T18:07:08.979Z,98714.42
2017-08-20T18:09:37.403Z,98713.66
2017-08-20T18:12:05.791Z,98706.30
2017-08-20T18:14:34.965Z,98712.67
2017-08-20T18:17:03.333Z,98720.83
2017-08-20T18:19:31.709Z,98715.86
2017-08-20T18:22:00.101Z,98719.72
2017-08-20T18:24:28.473Z,98713.25
2017-08-20T18:26:56.849Z,98719.19
2017-08-20T18:29:25.250Z,98726.91
2017-08-20T18:31:53.630Z,98729.50
2017-08-20T18:34:21.998Z,98738.03
2017-08-20T18:36:50.396Z,98743.88
2017-08-20T18:39:18.784Z,98748.02
2017-08-20T18:41:47.168Z,98753.31
2017-08-20T18:44:15.565Z,98766.58
2017-08-20T18:46:43.950Z,98760.28
2017-08-20T18:49:12.349Z,98761.25
2017-08-20T18:51:40.724Z,98762.27
2017-08-20T18:54:09.131Z,98772.34
2017-08-20T18:56:37.516Z,98771.88
2017-08-20T18:59:05.904Z,98778.16
2017-08-20T19:01:34.310Z,98772.01
2017-08-20T19:04:02.684Z,98783.20
2017-08-20T19:06:31.061Z,98783.44
2017-08-20T19:08:59.473Z,98781.44
2017-08-20T19:11:27.841Z,98789.33
2017-08-20T19:13:56.226Z,98792.86
2017-08-20T19:16:25.405Z,98793.38
2017-08-20T19:18:53.768Z,98799.92
2017-08-20T19:21:22.148Z,98802.56
2017-08-20T19:23:50.561Z,98797.91
2017-08-20T19:26:18.994Z,98795.89
2017-08-20T19:28:47.380Z,98798.64
2017-08-20T19:31:15.779Z,98809.09
2017-08-20T19:33:44.210Z,98806.17
2017-08-20T19:36:12.609Z,98810.66
2017-08-20T19:38:40.969Z,98810.70
2017-08-20T19:41:09.346Z,98806.80
2017-08-20T19:43:38.500Z,98817.59
2017-08-20T19:46:06.883Z,98818.50
2017-08-20T19:48:35.289Z,98818.92
2017-08-20T19:51:03.718Z,98821.56
2017-08-20T19:53:32.114Z,98823.01
2017-08-20T19:56:00.511Z,98824.23
2017-08-20T19:58:28.892Z,98820.91
2017-08-20T20:00:57.308Z,98819.68
2017-08-20T20:03:26.445Z,98826.53
2017-08-20T20:05:54.838Z,98827.45
2017-08-20T20:08:23.208Z,98831.73
2017-08-20T20:10:51.614Z,98833.52
2017-08-20T20:13:20.073Z,98836.06
2017-08-20T20:15:48.501Z,98839.96
2017-08-20T20:18:16.902Z,98835.28
2017-08-20T20:20:46.040Z,98839.17
2017-08-20T20:23:14.449Z,98835.71
2017-08-20T20:25:42.867Z,98835.36
2017-08-20T20:28:11.317Z,98831.49
2017-08-20T20:30:39.857Z,98833.66
2017-08-20T20:33:08.329Z,98828.50
2017-08-20T20:35:36.817Z,98832.83
2017-08-20T20:38:06.841Z,98826.84
2017-08-20T20:40:44.791Z,98829.45
2017-08-20T20:43:17.334Z,98829.14
2017-08-20T20:45:48.768Z,98835.61
2017-08-20T20:48:38.502Z,98833.02
2017-08-20T20:51:17.472Z,98829.58
2017-08-20T20:53:48.874Z,98836.08
2017-08-20T20:56:18.104Z,98831.86
2017-08-20T20:58:46.480Z,98835.20
2017-08-20T21:01:15.130Z,98834.77
2017-08-20T21:03:43.588Z,98828.78
2017-08-20T21:06:11.990Z,98836.90
2017-08-20T21:08:40.365Z,98833.06
2017-08-20T21:11:08.763Z,98832.55
2017-08-20T21:13:37.146Z,98840.72
2017-08-20T21:16:05.521Z,98832.63
2017-08-20T21:18:33.928Z,98839.45
2017-08-20T21:21:02.326Z,98846.35
2017-08-20T21:23:31.495Z,98837.77
2017-08-20T21:25:59.866Z,98845.54
2017-08-20T21:28:28.268Z,98836.48
2017-08-20T21:30:56.679Z,98839.52
2017-08-20T21:33:25.065Z,98842.96
2017-08-20T21:35:53.465Z,98846.41
2017-08-20T21:38:21.838Z,98847.67
2017-08-20T21:40:50.260Z,98842.08
2017-08-20T21:43:18.640Z,98841.62
2017-08-20T21:45:47.041Z,98828.33
2017-08-20T21:48:15.431Z,98825.29
2017-08-20T21:50:43.852Z,98838.66
2017-08-20T21:53:12.233Z,98844.67
2017-08-20T21:55:40.622Z,98836.93
2017-08-20T21:58:09.032Z,98832.19
2017-08-20T22:00:37.416Z,98828.81
2017-08-20T22:03:05.831Z,98831.38
2017-08-20T22:05:34.218Z,98828.79
2017-08-20T22:08:03.386Z,98828.80
2017-08-20T22:10:31.763Z,98824.10
2017-08-20T22:13:00.156Z,98827.59
2017-08-20T22:15:28.566Z,98817.30
2017-08-20T22:17:56.960Z,98823.25
2017-08-20T22:20:25.387Z,98825.42
2017-08-20T22:22:53.757Z,98820.70
2017-08-20T22:25:22.137Z,98825.42
2017-08-20T22:27:50.533Z,98833.11
2017-08-20T22:30:18.921Z,98832.72
2017-08-20T22:32:47.313Z,98839.58
2017-08-20T22:35:15.730Z,98846.86
2017-08-20T22:37:44.105Z,98830.13
2017-08-20T22:40:12.504Z,98816.40
2017-08-20T22:42:40.910Z,98814.20
2017-08-20T22:45:09.281Z,98827.48
2017-08-20T22:47:37.672Z,98824.05
2017-08-20T22:50:06.072Z,98820.63
2017-08-20T22:52:34.466Z,98824.98
2017-08-20T22:55:02.836Z,98824.51
2017-08-20T22:57:31.210Z,98832.33
2017-08-20T23:00:00.036Z,98823.75
2017-08-20T23:02:28.497Z,98819.05
2017-08-20T23:04:56.869Z,98817.77
2017-08-20T23:07:25.270Z,98824.22
2017-08-20T23:09:54.409Z,98823.78
2017-08-20T23:12:22.801Z,98821.64
2017-08-20T23:14:51.194Z,98807.04
2017-08-20T23:17:19.588Z,98803.56
2017-08-20T23:19:48.464Z,98802.72
2017-08-20T23:22:17.034Z,98798.88
2017-08-20T23:24:45.456Z,98798.44
2017-08-20T23:27:13.833Z,98801.43
2017-08-20T23:29:42.211Z,98800.12
2017-08-20T23:32:10.632Z,98801.41
2017-08-20T23:34:39.033Z,98799.27
2017-08-20T23:37:07.416Z,98795.02
2017-08-20T23:39:35.852Z,98798.88
2017-08-20T23:42:04.225Z,98800.58
2017-08-20T23:44:32.633Z,98800.17
2017-08-20T23:47:01.774Z,98793.30
2017-08-20T23:49:30.155Z,98799.33
2017-08-20T23:51:58.570Z,98796.33
2017-08-20T23:54:26.937Z,98801.93
2017-08-20T23:56:55.358Z,98804.94
2017-08-20T23:59:24.510Z,98796.40
